createdAt,value
2018-05-29T00:02:05.213Z,22.42
2018-05-29T00:04:36.677Z,22.35
2018-05-29T00:07:05.910Z,22.32
2018-05-29T00:09:38.839Z,22.30
2018-05-29T00:12:11.824Z,22.26
2018-05-29T00:14:47.095Z,22.14
2018-05-29T00:17:16.871Z,22.16
2018-05-29T00:19:49.665Z,22.09
2018-05-29T00:22:22.582Z,22.10
2018-05-29T00:24:57.147Z,22.00
2018-05-29T00:27:27.652Z,21.93
2018-05-29T00:29:59.022Z,21.96
2018-05-29T00:32:29.788Z,21.98
2018-05-29T00:35:01.387Z,22.03
2018-05-29T00:37:31.569Z,21.94
2018-05-29T00:40:03.111Z,21.89
2018-05-29T00:42:38.777Z,21.86
2018-05-29T00:45:09.482Z,21.81
2018-05-29T00:47:39.399Z,21.78
2018-05-29T00:50:11.903Z,21.81
2018-05-29T00:52:43.446Z,21.75
2018-05-29T00:55:40.922Z,21.78
2018-05-29T00:58:12.344Z,21.70
2018-05-29T01:00:43.846Z,21.64
2018-05-29T01:03:15.733Z,21.53
2018-05-29T01:05:46.648Z,21.48
2018-05-29T01:08:20.048Z,21.46
2018-05-29T01:10:55.382Z,21.47
2018-05-29T01:13:29.748Z,21.39
2018-05-29T01:16:02.725Z,21.33
2018-05-29T01:18:35.212Z,21.22
2018-05-29T01:21:06.538Z,21.20
2018-05-29T01:23:36.556Z,21.21
2018-05-29T01:26:07.855Z,21.12
2018-05-29T01:28:39.280Z,21.07
2018-05-29T01:31:11.863Z,20.98
2018-05-29T01:33:44.673Z,20.95
2018-05-29T01:36:17.705Z,20.95
2018-05-29T01:38:50.593Z,20.97
2018-05-29T01:41:23.662Z,20.95
2018-05-29T01:43:53.725Z,20.96
2018-05-29T01:46:27.363Z,20.82
2018-05-29T01:49:01.924Z,20.83
2018-05-29T01:51:33.741Z,20.87
2018-05-29T01:54:05.156Z,20.85
2018-05-29T01:56:34.585Z,20.88
2018-05-29T01:59:06.677Z,20.86
2018-05-29T02:01:39.728Z,20.78
2018-05-29T02:04:09.634Z,20.74
2018-05-29T02:06:40.145Z,20.66
2018-05-29T02:09:11.727Z,20.64
2018-05-29T02:11:44.582Z,20.66
2018-05-29T02:14:17.508Z,20.65
2018-05-29T02:16:50.575Z,20.54
2018-05-29T02:19:20.602Z,20.47
2018-05-29T02:21:52.072Z,20.43
2018-05-29T02:24:25.340Z,20.42
2018-05-29T02:26:56.806Z,20.37
2018-05-29T02:29:29.762Z,20.25
2018-05-29T02:32:03.152Z,20.19
2018-05-29T02:34:34.608Z,20.15
2018-05-29T02:37:06.113Z,20.08
2018-05-29T02:39:39.357Z,20.07
2018-05-29T02:42:12.505Z,20.06
2018-05-29T02:44:43.824Z,20.03
2018-05-29T02:47:15.813Z,19.97
2018-05-29T02:49:48.629Z,19.98
2018-05-29T02:52:20.734Z,20.00
2018-05-29T02:54:50.639Z,19.99
2018-05-29T02:57:19.483Z,19.99
2018-05-29T02:59:49.223Z,20.01
2018-05-29T03:02:19.232Z,19.94
2018-05-29T03:04:52.168Z,19.92
2018-05-29T03:07:25.015Z,19.89
2018-05-29T03:09:57.967Z,19.85
2018-05-29T03:12:29.352Z,19.85
2018-05-29T03:15:01.330Z,19.89
2018-05-29T03:17:33.879Z,19.82
2018-05-29T03:20:05.256Z,19.83
2018-05-29T03:22:35.976Z,19.78
2018-05-29T03:25:06.304Z,19.79
2018-05-29T03:27:35.359Z,19.79
2018-05-29T03:30:06.029Z,19.85
2018-05-29T03:32:39.004Z,19.85
2018-05-29T03:35:09.901Z,19.82
2018-05-29T03:37:44.366Z,19.95
2018-05-29T03:40:15.890Z,19.93
2018-05-29T03:42:50.134Z,19.87
2018-05-29T03:45:21.738Z,19.92
2018-05-29T03:47:54.603Z,19.91
2018-05-29T03:50:27.560Z,19.97
2018-05-29T03:53:01.870Z,20.03
2018-05-29T03:55:33.411Z,20.03
2018-05-29T03:58:04.773Z,20.27
2018-05-29T04:00:36.196Z,20.44
2018-05-29T04:03:07.965Z,20.56
2018-05-29T04:05:43.499Z,20.67
2018-05-29T04:08:14.755Z,20.82
2018-05-29T04:10:46.066Z,21.00
2018-05-29T04:13:17.475Z,21.08
2018-05-29T04:15:49.366Z,21.30
2018-05-29T04:18:20.653Z,21.63
2018-05-29T04:20:54.943Z,21.76
2018-05-29T04:23:26.353Z,21.92
2018-05-29T04:25:57.876Z,22.08
2018-05-29T04:28:29.600Z,22.08
2018-05-29T04:30:59.577Z,22.32
2018-05-29T04:33:32.494Z,22.23
2018-05-29T04:36:05.021Z,22.54
2018-05-29T04:38:36.419Z,22.63
2018-05-29T04:41:07.308Z,22.65
2018-05-29T04:43:38.109Z,22.74
2018-05-29T04:46:12.361Z,22.88
2018-05-29T04:48:48.338Z,23.02
2018-05-29T04:51:20.250Z,23.13
2018-05-29T04:53:51.601Z,23.37
2018-05-29T04:56:22.973Z,23.60
2018-05-29T04:58:55.154Z,23.87
2018-05-29T05:01:27.942Z,24.07
2018-05-29T05:04:01.301Z,24.11
2018-05-29T05:06:34.129Z,24.11
2018-05-29T05:09:04.213Z,24.40
2018-05-29T05:11:38.232Z,24.67
2018-05-29T05:14:11.398Z,25.00
2018-05-29T05:16:45.146Z,24.83
2018-05-29T05:19:17.500Z,24.86
2018-05-29T05:21:49.501Z,24.92
2018-05-29T05:24:20.854Z,25.08
2018-05-29T05:26:52.810Z,24.79
2018-05-29T05:29:24.353Z,25.35
2018-05-29T05:31:56.767Z,25.12
2018-05-29T05:34:28.280Z,25.34
2018-05-29T05:37:01.900Z,25.93
2018-05-29T05:39:33.471Z,25.74
2018-05-29T05:42:08.030Z,25.89
2018-05-29T05:44:40.888Z,26.32
2018-05-29T05:47:12.405Z,26.85
2018-05-29T05:49:45.336Z,27.60
2018-05-29T05:52:16.004Z,27.02
2018-05-29T05:54:50.324Z,26.59
2018-05-29T05:57:20.237Z,26.69
2018-05-29T05:59:51.615Z,26.27
2018-05-29T06:02:24.914Z,26.73
2018-05-29T06:04:57.966Z,26.84
2018-05-29T06:07:30.305Z,26.92
2018-05-29T06:10:02.129Z,26.71
2018-05-29T06:12:34.295Z,26.82
2018-05-29T06:15:07.030Z,26.85
2018-05-29T06:17:38.321Z,27.06
2018-05-29T06:20:09.786Z,27.91
2018-05-29T06:22:41.987Z,27.92
2018-05-29T06:25:14.811Z,27.19
2018-05-29T06:27:49.205Z,27.71
2018-05-29T06:30:22.055Z,28.03
2018-05-29T06:32:52.933Z,27.79
2018-05-29T06:35:27.248Z,27.80
2018-05-29T06:38:00.672Z,27.40
2018-05-29T06:40:32.632Z,27.79
2018-05-29T06:43:04.334Z,28.24
2018-05-29T06:45:35.706Z,28.73
2018-05-29T06:48:07.409Z,28.67
2018-05-29T06:50:40.198Z,28.65
2018-05-29T06:53:11.593Z,28.78
2018-05-29T06:55:44.472Z,28.91
2018-05-29T06:58:17.353Z,28.95
2018-05-29T07:00:50.201Z,28.69
2018-05-29T07:03:24.657Z,29.48
2018-05-29T07:05:57.468Z,29.44
2018-05-29T07:08:31.893Z,29.31
2018-05-29T07:11:04.709Z,30.46
2018-05-29T07:13:36.055Z,30.18
2018-05-29T07:16:10.375Z,29.98
2018-05-29T07:18:41.731Z,30.28
2018-05-29T07:21:14.078Z,30.06
2018-05-29T07:23:46.931Z,31.16
2018-05-29T07:26:19.683Z,32.09
2018-05-29T07:28:51.746Z,31.62
2018-05-29T07:31:21.912Z,31.94
2018-05-29T07:33:54.702Z,32.58
2018-05-29T07:36:26.018Z,32.07
2018-05-29T07:38:55.811Z,31.23
2018-05-29T07:41:28.288Z,31.02
2018-05-29T07:44:01.557Z,31.10
2018-05-29T07:46:35.746Z,31.07
2018-05-29T07:49:09.307Z,31.40
2018-05-29T07:51:40.738Z,31.89
2018-05-29T07:54:12.036Z,30.97
2018-05-29T07:56:44.891Z,31.31
2018-05-29T07:59:16.318Z,31.56
2018-05-29T08:01:47.681Z,32.26
2018-05-29T08:04:17.684Z,31.97
2018-05-29T08:06:51.890Z,31.90
2018-05-29T08:09:23.689Z,32.61
2018-05-29T08:11:58.089Z,32.52
2018-05-29T08:14:33.613Z,31.79
2018-05-29T08:17:06.476Z,32.14
2018-05-29T08:19:38.334Z,31.75
2018-05-29T08:22:12.467Z,31.97
2018-05-29T08:24:46.756Z,31.02
2018-05-29T08:27:20.284Z,31.27
2018-05-29T08:29:51.740Z,31.50
2018-05-29T08:32:23.047Z,32.55
2018-05-29T08:34:55.821Z,31.96
2018-05-29T08:37:29.304Z,31.95
2018-05-29T08:40:02.430Z,31.47
2018-05-29T08:42:32.351Z,31.21
2018-05-29T08:45:06.666Z,30.93
2018-05-29T08:47:39.609Z,31.28
2018-05-29T08:50:12.526Z,31.63
2018-05-29T08:52:45.499Z,31.69
2018-05-29T08:55:15.896Z,31.01
2018-05-29T08:57:45.755Z,30.85
2018-05-29T09:00:18.511Z,31.41
2018-05-29T09:02:51.708Z,32.12
2018-05-29T09:05:23.051Z,31.71
2018-05-29T09:07:55.790Z,31.98
2018-05-29T09:10:28.530Z,31.64
2018-05-29T09:13:02.655Z,31.67
2018-05-29T09:15:33.460Z,32.82
2018-05-29T09:18:06.407Z,32.72
2018-05-29T09:20:36.976Z,33.33
2018-05-29T09:23:09.752Z,32.93
2018-05-29T09:25:40.618Z,32.43
2018-05-29T09:28:11.977Z,32.41
2018-05-29T09:30:45.396Z,32.77
2018-05-29T09:33:18.848Z,32.50
2018-05-29T09:35:52.722Z,32.53
2018-05-29T09:38:25.511Z,33.03
2018-05-29T09:40:56.945Z,33.62
2018-05-29T09:43:28.281Z,33.25
2018-05-29T09:46:01.095Z,33.13
2018-05-29T09:48:35.224Z,33.05
2018-05-29T09:51:07.305Z,33.27
2018-05-29T09:53:37.845Z,32.98
2018-05-29T09:56:10.659Z,33.97
2018-05-29T09:58:42.074Z,33.04
2018-05-29T10:01:15.033Z,33.41
2018-05-29T10:03:46.200Z,33.30
2018-05-29T10:06:19.016Z,33.61
2018-05-29T10:08:50.383Z,32.98
2018-05-29T10:11:20.315Z,32.82
2018-05-29T10:13:53.024Z,33.48
2018-05-29T10:16:25.129Z,34.14
2018-05-29T10:18:59.402Z,34.45
2018-05-29T10:21:30.991Z,34.88
2018-05-29T10:24:03.740Z,34.83
2018-05-29T10:26:35.855Z,35.14
2018-05-29T10:29:08.631Z,34.84
2018-05-29T10:31:38.620Z,33.96
2018-05-29T10:34:12.892Z,34.84
2018-05-29T10:36:45.768Z,34.52
2018-05-29T10:39:18.972Z,33.90
2018-05-29T10:41:51.896Z,33.54
2018-05-29T10:44:23.265Z,34.00
2018-05-29T10:46:55.271Z,34.22
2018-05-29T10:49:28.156Z,34.63
2018-05-29T10:52:02.372Z,34.70
2018-05-29T10:54:36.963Z,34.41
2018-05-29T10:57:09.846Z,34.07
2018-05-29T10:59:43.395Z,33.99
2018-05-29T11:02:14.813Z,33.95
2018-05-29T11:04:46.855Z,34.30
2018-05-29T11:07:18.319Z,34.48
2018-05-29T11:09:51.895Z,34.55
2018-05-29T11:12:23.203Z,34.26
2018-05-29T11:14:56.081Z,34.44
2018-05-29T11:17:27.699Z,34.50
2018-05-29T11:19:57.532Z,34.27
2018-05-29T11:22:27.341Z,33.41
2018-05-29T11:25:00.306Z,32.72
2018-05-29T11:27:33.083Z,33.37
2018-05-29T11:30:04.376Z,33.70
2018-05-29T11:32:38.637Z,33.56
2018-05-29T11:35:09.973Z,33.90
2018-05-29T11:37:42.989Z,33.23
2018-05-29T11:40:16.677Z,33.51
2018-05-29T11:42:49.373Z,33.31
2018-05-29T11:45:19.244Z,33.00
2018-05-29T11:47:53.660Z,32.88
2018-05-29T11:50:25.128Z,33.33
2018-05-29T11:52:56.438Z,32.65
2018-05-29T11:55:28.277Z,32.81
2018-05-29T11:58:02.654Z,32.75
2018-05-29T12:00:35.486Z,32.88
2018-05-29T12:03:08.805Z,32.90
2018-05-29T12:05:44.115Z,32.99
2018-05-29T12:08:16.964Z,32.87
2018-05-29T12:10:48.631Z,32.83
2018-05-29T12:13:19.033Z,32.84
2018-05-29T12:15:53.269Z,32.69
2018-05-29T12:18:26.527Z,33.26
2018-05-29T12:20:59.204Z,32.80
2018-05-29T12:23:29.071Z,33.16
2018-05-29T12:26:00.204Z,33.05
2018-05-29T12:28:33.873Z,33.22
2018-05-29T12:31:07.009Z,33.17
2018-05-29T12:33:37.691Z,33.56
2018-05-29T12:36:10.555Z,33.33
2018-05-29T12:38:42.586Z,33.14
2018-05-29T12:41:14.460Z,33.06
2018-05-29T12:43:48.730Z,32.91
2018-05-29T12:46:20.590Z,32.92
2018-05-29T12:48:50.966Z,32.92
2018-05-29T12:51:24.192Z,32.97
2018-05-29T12:53:55.485Z,33.51
2018-05-29T12:56:26.793Z,33.98
2018-05-29T12:58:59.635Z,33.80
2018-05-29T13:01:29.454Z,33.84
2018-05-29T13:04:00.795Z,33.65
2018-05-29T13:06:32.877Z,33.19
2018-05-29T13:09:04.317Z,33.64
2018-05-29T13:11:34.725Z,33.86
2018-05-29T13:14:06.944Z,33.38
2018-05-29T13:16:39.669Z,34.18
2018-05-29T13:19:09.490Z,33.92
2018-05-29T13:21:40.927Z,34.04
2018-05-29T13:24:16.165Z,33.89
2018-05-29T13:26:49.022Z,33.45
2018-05-29T13:29:18.867Z,34.27
2018-05-29T13:31:50.222Z,33.73
2018-05-29T13:34:23.617Z,33.03
2018-05-29T13:36:55.423Z,33.70
2018-05-29T13:39:29.115Z,34.12
2018-05-29T13:42:09.755Z,34.50
2018-05-29T13:44:42.462Z,34.25
2018-05-29T13:47:16.002Z,34.12
2018-05-29T13:49:50.272Z,33.71
2018-05-29T13:52:23.060Z,33.44
2018-05-29T13:54:56.622Z,33.91
2018-05-29T13:57:30.903Z,33.35
2018-05-29T14:00:05.476Z,32.74
2018-05-29T14:02:36.814Z,30.23
2018-05-29T14:05:08.234Z,29.54
2018-05-29T14:07:39.897Z,28.86
2018-05-29T14:10:12.736Z,28.46
2018-05-29T14:12:44.045Z,28.71
2018-05-29T14:15:17.393Z,28.45
2018-05-29T14:17:50.321Z,28.59
2018-05-29T14:20:23.250Z,28.92
2018-05-29T14:22:57.631Z,28.66
2018-05-29T14:25:31.065Z,29.04
2018-05-29T14:28:03.871Z,29.11
2018-05-29T14:30:36.502Z,29.17
2018-05-29T14:33:10.852Z,29.15
2018-05-29T14:35:45.279Z,29.23
2018-05-29T14:38:18.707Z,29.07
2018-05-29T14:40:51.622Z,29.51
2018-05-29T14:43:25.965Z,29.32
2018-05-29T14:45:58.781Z,29.33
2018-05-29T14:48:31.142Z,28.97
2018-05-29T14:51:04.218Z,29.47
2018-05-29T14:53:37.840Z,29.48
2018-05-29T14:56:07.710Z,30.02
2018-05-29T14:58:39.059Z,30.09
2018-05-29T15:01:08.968Z,30.22
2018-05-29T15:03:43.263Z,30.17
2018-05-29T15:06:15.032Z,29.92
2018-05-29T15:08:49.343Z,29.78
2018-05-29T15:11:19.220Z,29.42
2018-05-29T15:13:52.048Z,29.60
2018-05-29T15:16:26.198Z,29.16
2018-05-29T15:18:56.165Z,29.41
2018-05-29T15:21:30.520Z,29.02
2018-05-29T15:24:24.927Z,28.47
2018-05-29T15:26:57.976Z,26.62
2018-05-29T15:29:32.095Z,25.35
2018-05-29T15:32:05.182Z,24.18
2018-05-29T15:34:38.100Z,23.54
2018-05-29T15:37:12.868Z,23.42
2018-05-29T15:39:45.851Z,23.33
2018-05-29T15:42:19.238Z,23.37
2018-05-29T15:45:04.351Z,23.54
2018-05-29T15:47:37.212Z,23.54
2018-05-29T15:50:07.337Z,23.75
2018-05-29T15:52:40.188Z,24.02
2018-05-29T15:55:12.991Z,24.20
2018-05-29T15:57:44.375Z,24.37
2018-05-29T16:00:17.788Z,24.53
2018-05-29T16:02:50.642Z,24.68
2018-05-29T16:05:24.976Z,25.05
2018-05-29T16:07:55.596Z,25.30
2018-05-29T16:10:27.618Z,25.36
2018-05-29T16:12:59.634Z,25.75
2018-05-29T16:15:33.287Z,25.95
2018-05-29T16:18:07.624Z,26.21
2018-05-29T16:20:41.863Z,26.44
2018-05-29T16:23:15.166Z,26.35
2018-05-29T16:25:46.698Z,26.58
2018-05-29T16:28:21.030Z,26.52
2018-05-29T16:30:52.383Z,26.45
2018-05-29T16:33:22.703Z,26.44
2018-05-29T16:35:54.929Z,26.66
2018-05-29T16:38:29.278Z,26.51
2018-05-29T16:41:01.356Z,26.29
2018-05-29T16:43:31.804Z,26.18
2018-05-29T16:46:04.673Z,25.77
2018-05-29T16:48:38.218Z,25.56
2018-05-29T16:51:09.711Z,25.43
2018-05-29T16:53:41.771Z,25.26
2018-05-29T16:56:13.357Z,25.36
2018-05-29T16:58:46.264Z,25.33
2018-05-29T17:01:18.198Z,25.22
2018-05-29T17:03:49.686Z,25.07
2018-05-29T17:06:21.136Z,24.62
2018-05-29T17:08:52.662Z,24.52
2018-05-29T17:11:24.009Z,24.47
2018-05-29T17:13:57.033Z,24.57
2018-05-29T17:16:29.944Z,24.50
2018-05-29T17:19:04.479Z,23.74
2018-05-29T17:21:38.734Z,23.21
2018-05-29T17:24:11.527Z,23.33
2018-05-29T17:26:43.131Z,23.26
2018-05-29T17:29:15.218Z,23.18
2018-05-29T17:31:49.572Z,22.74
2018-05-29T17:34:20.943Z,22.48
2018-05-29T17:36:52.424Z,22.33
2018-05-29T17:39:24.083Z,22.54
2018-05-29T17:41:55.536Z,22.56
2018-05-29T17:44:27.974Z,22.86
2018-05-29T17:46:59.592Z,22.77
2018-05-29T17:49:32.606Z,22.24
2018-05-29T17:52:04.775Z,22.35
2018-05-29T17:54:37.683Z,20.96
2018-05-29T17:57:10.248Z,21.45
2018-05-29T17:59:42.266Z,21.04
2018-05-29T18:02:16.942Z,20.93
2018-05-29T18:04:51.505Z,20.66
2018-05-29T18:07:26.132Z,20.53
2018-05-29T18:10:00.720Z,20.73
2018-05-29T18:12:32.102Z,20.61
2018-05-29T18:15:04.461Z,21.07
2018-05-29T18:17:37.398Z,21.24
2018-05-29T18:20:10.353Z,21.28
2018-05-29T18:22:42.870Z,21.35
2018-05-29T18:25:17.375Z,21.19
2018-05-29T18:27:50.284Z,21.36
2018-05-29T18:30:24.117Z,21.34
2018-05-29T18:32:57.352Z,21.29
2018-05-29T18:35:31.818Z,21.31
2018-05-29T18:38:06.557Z,21.31
2018-05-29T18:40:36.649Z,21.37
2018-05-29T18:43:08.106Z,21.31
2018-05-29T18:45:42.508Z,21.14
2018-05-29T18:48:12.548Z,21.11
2018-05-29T18:50:45.613Z,21.29
2018-05-29T18:53:15.953Z,21.34
2018-05-29T18:55:47.535Z,21.36
2018-05-29T18:58:19.019Z,21.38
2018-05-29T19:00:53.733Z,21.40
2018-05-29T19:03:26.650Z,21.58
2018-05-29T19:05:58.458Z,21.44
2018-05-29T19:08:29.411Z,21.29
2018-05-29T19:11:00.316Z,21.38
2018-05-29T19:13:33.318Z,21.37
2018-05-29T19:16:06.491Z,21.36
2018-05-29T19:18:40.632Z,21.29
2018-05-29T19:21:12.114Z,21.12
2018-05-29T19:23:46.462Z,21.15
2018-05-29T19:26:17.228Z,21.15
2018-05-29T19:28:49.928Z,21.21
2018-05-29T19:31:24.514Z,21.19
2018-05-29T19:33:56.004Z,21.00
2018-05-29T19:36:30.906Z,21.29
2018-05-29T19:39:03.915Z,21.11
2018-05-29T19:41:35.586Z,21.14
2018-05-29T19:44:10.263Z,21.06
2018-05-29T19:46:43.518Z,21.00
2018-05-29T19:49:15.095Z,20.88
2018-05-29T19:51:48.120Z,21.04
2018-05-29T19:54:21.086Z,21.16
2018-05-29T19:56:53.941Z,21.14
2018-05-29T19:59:26.418Z,21.20
2018-05-29T20:01:59.334Z,21.18
2018-05-29T20:04:29.317Z,21.27
2018-05-29T20:07:00.806Z,21.12
2018-05-29T20:09:33.036Z,21.01
2018-05-29T20:12:05.169Z,20.77
2018-05-29T20:14:38.353Z,21.06
2018-05-29T20:17:11.532Z,21.08
2018-05-29T20:19:41.742Z,21.23
2018-05-29T20:22:15.532Z,21.17
2018-05-29T20:24:48.452Z,21.11
2018-05-29T20:27:20.113Z,20.93
2018-05-29T20:29:54.488Z,20.89
2018-05-29T20:32:28.298Z,20.94
2018-05-29T20:35:01.648Z,20.75
2018-05-29T20:37:35.882Z,20.89
2018-05-29T20:40:09.009Z,20.95
2018-05-29T20:42:40.374Z,20.89
2018-05-29T20:45:13.206Z,20.72
2018-05-29T20:47:43.900Z,20.73
2018-05-29T20:50:18.197Z,20.75
2018-05-29T20:52:49.816Z,20.71
2018-05-29T20:55:19.727Z,20.56
2018-05-29T20:57:51.177Z,20.62
2018-05-29T21:00:24.205Z,20.62
2018-05-29T21:02:57.487Z,20.50
2018-05-29T21:05:30.386Z,20.48
2018-05-29T21:08:03.710Z,20.64
2018-05-29T21:10:36.935Z,20.52
2018-05-29T21:13:09.792Z,20.47
2018-05-29T21:15:43.143Z,20.44
2018-05-29T21:18:16.387Z,20.49
2018-05-29T21:20:48.824Z,20.51
2018-05-29T21:23:21.251Z,20.45
2018-05-29T21:25:54.219Z,20.46
2018-05-29T21:28:27.398Z,20.38
2018-05-29T21:31:00.001Z,20.52
2018-05-29T21:33:34.366Z,20.39
2018-05-29T21:36:05.845Z,20.43
2018-05-29T21:38:38.975Z,20.44
2018-05-29T21:41:11.985Z,20.44
2018-05-29T21:43:44.915Z,20.50
2018-05-29T21:46:16.417Z,20.49
2018-05-29T21:48:50.963Z,20.39
2018-05-29T21:51:23.927Z,20.35
2018-05-29T21:53:58.687Z,20.42
2018-05-29T21:56:32.031Z,20.36
2018-05-29T21:59:05.002Z,20.38
2018-05-29T22:01:37.980Z,20.33
2018-05-29T22:04:11.065Z,20.24
2018-05-29T22:06:42.385Z,20.27
2018-05-29T22:09:12.709Z,20.24
2018-05-29T22:11:45.996Z,20.17
2018-05-29T22:14:18.956Z,20.31
2018-05-29T22:16:52.277Z,20.37
2018-05-29T22:19:25.269Z,20.25
2018-05-29T22:21:59.863Z,20.32
2018-05-29T22:24:32.703Z,20.38
2018-05-29T22:27:04.383Z,20.31
2018-05-29T22:29:39.267Z,20.35
2018-05-29T22:32:10.712Z,20.30
2018-05-29T22:34:43.557Z,20.21
2018-05-29T22:37:16.735Z,20.23
2018-05-29T22:39:48.316Z,20.21
2018-05-29T22:42:22.813Z,20.18
2018-05-29T22:44:55.265Z,20.13
2018-05-29T22:47:26.881Z,20.09
2018-05-29T22:49:59.785Z,20.08
2018-05-29T22:52:34.294Z,20.17
2018-05-29T22:55:06.342Z,20.10
2018-05-29T22:57:39.442Z,20.17
2018-05-29T23:00:12.458Z,20.21
2018-05-29T23:02:45.775Z,20.09
2018-05-29T23:05:18.944Z,20.14
2018-05-29T23:07:52.095Z,20.11
2018-05-29T23:10:26.874Z,20.13
2018-05-29T23:12:59.876Z,20.13
2018-05-29T23:15:33.195Z,20.04
2018-05-29T23:18:06.171Z,20.05
2018-05-29T23:20:39.104Z,20.06
2018-05-29T23:23:13.802Z,20.12
2018-05-29T23:25:46.732Z,20.10
2018-05-29T23:28:19.757Z,19.95
2018-05-29T23:30:53.008Z,20.10
2018-05-29T23:33:26.019Z,20.16
2018-05-29T23:35:55.953Z,20.04
2018-05-29T23:38:29.471Z,19.82
2018-05-29T23:41:01.097Z,19.52
2018-05-29T23:43:34.147Z,19.42
2018-05-29T23:46:07.054Z,19.41
2018-05-29T23:48:41.740Z,19.57
2018-05-29T23:51:11.639Z,19.64
2018-05-29T23:53:46.520Z,19.67
2018-05-29T23:56:18.637Z,19.68
2018-05-29T23:58:53.383Z,19.69
